createdAt,value
2019-03-15T00:00:26.351Z,14.07
2019-03-15T00:01:33.986Z,10.45
2019-03-15T00:02:38.462Z,15.00
2019-03-15T00:03:42.613Z,11.50
2019-03-15T00:04:47.012Z,12.43
2019-03-15T00:05:50.850Z,11.28
2019-03-15T00:06:54.822Z,15.70
2019-03-15T00:07:58.890Z,13.53
2019-03-15T00:11:56.306Z,12.35
2019-03-15T00:13:19.620Z,12.00
2019-03-15T00:14:24.131Z,11.35
2019-03-15T00:15:47.295Z,10.05
2019-03-15T00:17:10.585Z,11.12
2019-03-15T00:18:34.201Z,9.25
2019-03-15T00:19:57.111Z,13.90
2019-03-15T00:21:01.238Z,14.43
2019-03-15T00:22:44.705Z,10.32
2019-03-15T00:24:07.955Z,10.00
2019-03-15T00:25:11.894Z,11.53
2019-03-15T00:26:35.181Z,9.18
2019-03-15T00:27:58.134Z,15.18
2019-03-15T00:29:02.646Z,11.25
2019-03-15T00:30:46.647Z,10.28
2019-03-15T00:32:10.030Z,12.23
2019-03-15T00:33:33.059Z,10.55
2019-03-15T00:36:00.335Z,12.47
2019-03-15T00:37:23.702Z,10.20
2019-03-15T00:40:12.396Z,13.93
2019-03-15T00:41:16.484Z,7.85
2019-03-15T00:42:20.879Z,10.28
2019-03-15T00:43:25.349Z,14.45
2019-03-15T00:44:29.426Z,11.35
2019-03-15T00:45:33.330Z,8.98
2019-03-15T00:46:38.245Z,11.18
2019-03-15T00:47:42.596Z,13.22
2019-03-15T00:48:46.485Z,13.75
2019-03-15T00:52:41.673Z,12.55
2019-03-15T00:53:45.920Z,12.95
2019-03-15T00:54:50.302Z,11.45
2019-03-15T00:56:13.928Z,15.08
2019-03-15T00:57:17.767Z,11.20
2019-03-15T00:58:40.977Z,12.93
2019-03-15T00:59:45.763Z,12.58
2019-03-15T01:00:49.864Z,10.43
2019-03-15T01:02:12.765Z,14.70
2019-03-15T01:03:36.065Z,9.93
2019-03-15T01:04:59.488Z,10.93
2019-03-15T01:06:03.396Z,12.50
2019-03-15T01:07:26.973Z,15.95
2019-03-15T01:08:31.488Z,20.25
2019-03-15T01:09:35.556Z,17.55
2019-03-15T01:10:58.782Z,12.85
2019-03-15T01:12:02.628Z,12.50
2019-03-15T01:13:25.989Z,12.03
2019-03-15T01:14:49.223Z,13.72
2019-03-15T01:16:12.258Z,15.00
2019-03-15T01:17:16.384Z,16.17
2019-03-15T01:18:20.645Z,14.90
2019-03-15T01:19:24.553Z,10.58
2019-03-15T01:20:47.575Z,14.43
2019-03-15T01:22:11.054Z,16.55
2019-03-15T01:23:34.003Z,19.15
2019-03-15T01:26:01.308Z,14.93
2019-03-15T01:27:05.288Z,17.82
2019-03-15T01:28:09.323Z,12.23
2019-03-15T01:29:13.216Z,17.27
2019-03-15T01:30:17.439Z,17.07
2019-03-15T01:31:22.020Z,17.85
2019-03-15T01:32:26.221Z,13.80
2019-03-15T01:33:30.744Z,18.25
2019-03-15T01:34:34.585Z,19.37
2019-03-15T01:35:57.591Z,24.50
2019-03-15T01:37:02.118Z,21.65
2019-03-15T01:38:25.317Z,15.45
2019-03-15T01:39:48.605Z,18.32
2019-03-15T01:40:52.707Z,17.52
2019-03-15T01:41:56.913Z,13.30
2019-03-15T01:43:00.740Z,13.65
2019-03-15T01:44:24.024Z,14.70
2019-03-15T01:45:28.254Z,15.68
2019-03-15T01:46:33.611Z,11.55
2019-03-15T01:47:38.208Z,15.90
2019-03-15T01:49:01.855Z,13.38
2019-03-15T01:50:25.443Z,13.05
2019-03-15T01:51:48.680Z,13.22
2019-03-15T01:52:52.759Z,15.13
2019-03-15T01:54:15.970Z,16.02
2019-03-15T01:55:39.486Z,14.93
2019-03-15T01:56:43.916Z,18.52
2019-03-15T01:58:07.096Z,24.95
2019-03-15T01:59:30.090Z,15.90
2019-03-15T02:00:34.323Z,14.58
2019-03-15T02:03:20.845Z,14.35
2019-03-15T02:04:44.052Z,11.28
2019-03-15T02:05:47.880Z,17.12
2019-03-15T02:06:52.081Z,15.85
2019-03-15T02:08:15.617Z,13.05
2019-03-15T02:09:20.106Z,17.17
2019-03-15T02:10:24.500Z,10.75
2019-03-15T02:11:29.459Z,15.88
2019-03-15T02:12:34.037Z,12.68
2019-03-15T02:13:38.348Z,16.87
2019-03-15T02:14:42.725Z,10.88
2019-03-15T02:15:47.441Z,11.73
2019-03-15T02:16:51.773Z,17.20
2019-03-15T02:17:56.118Z,11.40
2019-03-15T02:19:00.176Z,18.15
2019-03-15T02:20:04.405Z,13.38
2019-03-15T02:21:08.551Z,13.83
2019-03-15T02:22:12.793Z,16.25
2019-03-15T02:23:17.223Z,11.35
2019-03-15T02:24:21.373Z,13.38
2019-03-15T02:25:25.777Z,11.57
2019-03-15T02:26:29.683Z,15.03
2019-03-15T02:27:53.085Z,14.90
2019-03-15T02:29:16.289Z,11.53
2019-03-15T02:30:39.926Z,16.12
2019-03-15T02:31:44.119Z,17.60
2019-03-15T02:32:48.266Z,15.43
2019-03-15T02:34:11.385Z,14.15
2019-03-15T02:35:15.527Z,17.65
2019-03-15T02:36:40.081Z,14.05
2019-03-15T02:38:04.388Z,13.95
2019-03-15T02:40:50.566Z,12.40
2019-03-15T02:41:54.398Z,15.93
2019-03-15T02:43:19.083Z,16.05
2019-03-15T02:44:23.580Z,14.70
2019-03-15T02:45:47.067Z,14.23
2019-03-15T02:46:52.329Z,14.00
2019-03-15T02:48:15.999Z,10.75
2019-03-15T02:49:20.094Z,13.78
2019-03-15T02:50:24.164Z,16.95
2019-03-15T02:51:47.194Z,16.02
2019-03-15T02:52:51.407Z,20.97
2019-03-15T02:54:14.625Z,16.00
2019-03-15T02:55:18.759Z,14.10
2019-03-15T02:56:22.826Z,16.17
2019-03-15T02:57:27.004Z,17.10
2019-03-15T02:58:31.078Z,11.83
2019-03-15T02:59:35.237Z,13.25
2019-03-15T03:00:40.998Z,20.15
2019-03-15T03:01:46.817Z,18.23
2019-03-15T03:02:50.989Z,17.98
2019-03-15T03:03:55.060Z,17.10
2019-03-15T03:04:59.414Z,14.90
2019-03-15T03:06:03.816Z,15.38
2019-03-15T03:07:08.041Z,14.70
2019-03-15T03:08:12.154Z,14.60
2019-03-15T03:09:16.335Z,18.65
2019-03-15T03:10:20.226Z,15.90
2019-03-15T03:11:24.806Z,14.13
2019-03-15T03:12:29.269Z,14.47
2019-03-15T03:13:33.677Z,14.18
2019-03-15T03:14:37.758Z,18.35
2019-03-15T03:15:41.589Z,16.10
2019-03-15T03:16:46.311Z,13.55
2019-03-15T03:17:50.308Z,15.85
2019-03-15T03:18:54.275Z,15.38
2019-03-15T03:19:58.599Z,16.12
2019-03-15T03:21:02.692Z,16.23
2019-03-15T03:22:08.981Z,13.68
2019-03-15T03:23:13.036Z,13.05
2019-03-15T03:24:17.114Z,14.05
2019-03-15T03:25:21.277Z,10.32
2019-03-15T03:26:25.350Z,15.13
2019-03-15T03:27:29.184Z,18.20
2019-03-15T03:28:33.339Z,13.22
2019-03-15T03:29:37.997Z,20.08
2019-03-15T03:31:01.563Z,15.80
2019-03-15T03:32:24.664Z,17.07
2019-03-15T03:33:48.044Z,16.12
2019-03-15T03:35:11.708Z,15.25
2019-03-15T03:36:17.200Z,18.20
2019-03-15T03:37:40.504Z,16.27
2019-03-15T03:38:44.767Z,17.82
2019-03-15T03:39:49.083Z,12.98
2019-03-15T03:42:54.296Z,16.57
2019-03-15T03:44:17.544Z,17.12
2019-03-15T03:45:23.310Z,15.93
2019-03-15T03:46:27.537Z,15.95
2019-03-15T03:47:32.800Z,15.58
2019-03-15T03:48:57.042Z,14.55
2019-03-15T03:50:01.228Z,15.83
2019-03-15T03:51:24.503Z,13.80
2019-03-15T03:52:47.923Z,16.85
2019-03-15T03:54:11.390Z,17.35
2019-03-15T03:55:34.670Z,16.90
2019-03-15T03:58:40.054Z,15.58
2019-03-15T04:00:03.476Z,16.00
2019-03-15T04:01:26.678Z,21.33
2019-03-15T04:02:53.139Z,14.80
2019-03-15T04:05:39.782Z,16.20
2019-03-15T04:07:03.396Z,14.70
2019-03-15T04:08:07.905Z,17.32
2019-03-15T04:09:31.203Z,14.65
2019-03-15T04:10:54.518Z,13.88
2019-03-15T04:12:18.062Z,16.30
2019-03-15T04:13:40.957Z,13.85
2019-03-15T04:15:04.573Z,20.40
2019-03-15T04:16:08.789Z,17.52
2019-03-15T04:17:13.313Z,16.27
2019-03-15T04:18:36.346Z,11.60
2019-03-15T04:21:41.622Z,14.03
2019-03-15T04:22:45.465Z,16.27
2019-03-15T04:23:49.849Z,14.68
2019-03-15T04:24:54.023Z,13.95
2019-03-15T04:27:40.605Z,19.90
2019-03-15T04:28:44.488Z,17.57
2019-03-15T04:30:08.980Z,16.32
2019-03-15T04:31:14.074Z,16.15
2019-03-15T04:32:17.898Z,22.07
2019-03-15T04:33:22.054Z,14.93
2019-03-15T04:34:28.346Z,14.95
2019-03-15T04:35:32.352Z,15.98
2019-03-15T04:36:36.498Z,14.93
2019-03-15T04:37:40.827Z,16.60
2019-03-15T04:38:44.666Z,15.93
2019-03-15T04:39:49.113Z,18.15
2019-03-15T04:40:53.762Z,19.02
2019-03-15T04:41:57.853Z,15.05
2019-03-15T04:43:02.431Z,15.68
2019-03-15T04:44:07.021Z,18.05
2019-03-15T04:45:11.497Z,16.32
2019-03-15T04:46:15.722Z,21.12
2019-03-15T04:47:19.801Z,20.32
2019-03-15T04:48:24.142Z,17.85
2019-03-15T04:49:28.295Z,17.55
2019-03-15T04:50:32.196Z,12.35
2019-03-15T04:51:36.016Z,15.70
2019-03-15T04:52:40.096Z,16.10
2019-03-15T04:53:44.188Z,15.88
2019-03-15T04:54:48.106Z,19.70
2019-03-15T04:55:52.788Z,17.75
2019-03-15T04:56:56.773Z,14.83
2019-03-15T04:58:00.863Z,16.80
2019-03-15T04:59:05.091Z,13.72
2019-03-15T05:00:10.984Z,18.35
2019-03-15T05:01:15.002Z,22.07
2019-03-15T05:02:19.151Z,13.43
2019-03-15T05:03:23.376Z,17.40
2019-03-15T05:04:27.485Z,18.62
2019-03-15T05:06:02.409Z,14.40
2019-03-15T05:06:55.997Z,16.25
2019-03-15T05:08:00.084Z,17.35
2019-03-15T05:09:23.373Z,15.10
2019-03-15T05:10:27.505Z,19.00
2019-03-15T05:11:32.018Z,14.95
2019-03-15T05:12:36.122Z,18.37
2019-03-15T05:13:40.620Z,16.82
2019-03-15T05:14:45.230Z,13.48
2019-03-15T05:16:08.116Z,12.18
2019-03-15T05:17:12.612Z,16.93
2019-03-15T05:18:16.948Z,20.60
2019-03-15T05:19:40.009Z,18.30
2019-03-15T05:21:03.295Z,16.42
2019-03-15T05:22:26.572Z,17.50
2019-03-15T05:23:50.231Z,18.27
2019-03-15T05:24:54.851Z,18.30
2019-03-15T05:26:18.635Z,16.25
2019-03-15T05:27:42.330Z,18.40
2019-03-15T05:29:05.706Z,12.43
2019-03-15T05:33:36.134Z,20.97
2019-03-15T05:34:59.528Z,14.50
2019-03-15T05:36:22.938Z,19.65
2019-03-15T05:37:46.115Z,19.20
2019-03-15T05:39:09.382Z,20.40
2019-03-15T05:40:13.304Z,19.85
2019-03-15T05:41:36.659Z,20.25
2019-03-15T05:43:00.122Z,16.07
2019-03-15T05:44:04.145Z,20.40
2019-03-15T05:45:09.534Z,18.10
2019-03-15T05:46:13.723Z,17.17
2019-03-15T05:48:41.351Z,19.05
2019-03-15T05:50:05.176Z,19.35
2019-03-15T05:52:33.037Z,16.73
2019-03-15T05:53:56.358Z,19.10
2019-03-15T05:55:00.640Z,15.53
2019-03-15T05:56:25.429Z,14.78
2019-03-15T05:57:48.747Z,19.50
2019-03-15T05:59:12.065Z,15.75
2019-03-15T06:00:16.001Z,16.97
2019-03-15T06:01:39.029Z,19.25
2019-03-15T06:03:02.050Z,18.60
2019-03-15T06:04:25.202Z,19.15
2019-03-15T06:05:48.095Z,18.02
2019-03-15T06:07:11.623Z,22.13
2019-03-15T06:08:35.197Z,22.45
2019-03-15T06:09:39.716Z,21.70
2019-03-15T06:10:43.799Z,20.25
2019-03-15T06:11:48.001Z,20.17
2019-03-15T06:12:52.649Z,20.48
2019-03-15T06:13:56.632Z,14.75
2019-03-15T06:15:00.728Z,16.65
2019-03-15T06:16:05.195Z,16.75
2019-03-15T06:17:09.354Z,25.92
2019-03-15T06:18:13.504Z,20.30
2019-03-15T06:19:17.854Z,22.37
2019-03-15T06:20:22.996Z,23.10
2019-03-15T06:21:27.413Z,23.80
2019-03-15T06:22:31.927Z,21.33
2019-03-15T06:23:36.326Z,19.37
2019-03-15T06:24:40.584Z,18.95
2019-03-15T06:25:44.657Z,21.15
2019-03-15T06:26:48.915Z,28.75
2019-03-15T06:27:53.085Z,20.72
2019-03-15T06:28:57.242Z,22.13
2019-03-15T06:30:01.427Z,22.58
2019-03-15T06:31:05.330Z,18.00
2019-03-15T06:32:09.482Z,20.75
2019-03-15T06:33:13.554Z,19.90
2019-03-15T06:34:18.151Z,17.32
2019-03-15T06:35:22.253Z,17.23
2019-03-15T06:36:26.843Z,19.77
2019-03-15T06:37:31.249Z,17.95
2019-03-15T06:38:35.606Z,17.85
2019-03-15T06:39:39.773Z,20.65
2019-03-15T06:40:43.602Z,16.65
2019-03-15T06:41:47.502Z,11.70
2019-03-15T06:42:51.479Z,15.63
2019-03-15T06:43:55.381Z,18.48
2019-03-15T06:44:59.870Z,12.75
2019-03-15T06:46:04.337Z,17.12
2019-03-15T06:47:08.482Z,16.05
2019-03-15T06:48:12.806Z,21.55
2019-03-15T06:49:17.169Z,15.15
2019-03-15T06:50:21.665Z,14.68
2019-03-15T06:51:25.751Z,17.45
2019-03-15T06:52:29.905Z,18.52
2019-03-15T06:53:34.395Z,12.25
2019-03-15T06:54:50.857Z,14.65
2019-03-15T06:57:17.923Z,17.67
2019-03-15T06:58:41.206Z,13.50
2019-03-15T07:00:04.451Z,12.80
2019-03-15T07:01:27.883Z,14.80
2019-03-15T07:02:51.037Z,9.95
2019-03-15T07:04:14.570Z,14.40
2019-03-15T07:05:18.710Z,12.73
2019-03-15T07:06:42.897Z,14.00
2019-03-15T07:08:06.613Z,15.48
2019-03-15T07:09:31.008Z,13.25
2019-03-15T07:12:09.351Z,18.15
2019-03-15T07:13:29.042Z,14.35
2019-03-15T07:14:52.087Z,13.10
2019-03-15T07:15:56.168Z,11.90
2019-03-15T07:18:42.083Z,14.93
2019-03-15T07:19:45.942Z,10.60
2019-03-15T07:20:49.780Z,13.85
2019-03-15T07:21:53.962Z,13.55
2019-03-15T07:23:16.962Z,13.45
2019-03-15T07:24:25.409Z,11.48
2019-03-15T07:25:46.225Z,14.18
2019-03-15T07:27:13.198Z,9.45
2019-03-15T07:28:15.300Z,10.15
2019-03-15T07:29:19.623Z,14.20
2019-03-15T07:30:23.797Z,12.43
2019-03-15T07:31:27.661Z,15.32
2019-03-15T07:32:31.707Z,9.83
2019-03-15T07:33:35.858Z,12.55
2019-03-15T07:34:39.940Z,11.95
2019-03-15T07:35:44.393Z,10.95
2019-03-15T07:36:48.739Z,11.70
2019-03-15T07:37:52.809Z,10.10
2019-03-15T07:38:57.035Z,13.83
2019-03-15T07:40:00.878Z,14.10
2019-03-15T07:41:05.092Z,8.40
2019-03-15T07:42:09.246Z,17.60
2019-03-15T07:43:13.318Z,10.78
2019-03-15T07:44:17.734Z,15.23
2019-03-15T07:45:21.658Z,14.07
2019-03-15T07:46:25.816Z,9.43
2019-03-15T07:47:29.879Z,18.98
2019-03-15T07:48:52.906Z,30.95
2019-03-15T07:50:16.279Z,49.77
2019-03-15T07:51:39.780Z,42.25
2019-03-15T07:53:03.351Z,24.98
2019-03-15T07:54:07.473Z,13.90
2019-03-15T07:55:30.456Z,29.50
2019-03-15T07:56:34.548Z,19.77
2019-03-15T07:57:57.450Z,18.95
2019-03-15T07:59:20.559Z,18.20
2019-03-15T08:00:43.840Z,13.32
2019-03-15T08:02:07.331Z,10.60
2019-03-15T08:03:11.868Z,9.23
2019-03-15T08:04:17.261Z,9.88
2019-03-15T08:05:22.126Z,8.78
2019-03-15T08:08:08.465Z,9.35
2019-03-15T08:09:12.607Z,6.70
2019-03-15T08:10:36.301Z,6.25
2019-03-15T08:11:40.644Z,5.53
2019-03-15T08:12:44.485Z,7.65
2019-03-15T08:13:48.674Z,8.28
2019-03-15T08:14:53.350Z,6.75
2019-03-15T08:16:16.450Z,4.33
2019-03-15T08:17:39.722Z,7.00
2019-03-15T08:19:05.062Z,5.20
2019-03-15T08:20:09.849Z,7.90
2019-03-15T08:21:13.762Z,6.87
2019-03-15T08:22:18.082Z,4.62
2019-03-15T08:23:21.905Z,6.78
2019-03-15T08:24:25.884Z,10.55
2019-03-15T08:25:30.049Z,11.48
2019-03-15T08:26:34.136Z,9.55
2019-03-15T08:27:38.030Z,10.50
2019-03-15T08:28:42.132Z,6.65
2019-03-15T08:29:46.103Z,9.25
2019-03-15T08:30:50.508Z,6.97
2019-03-15T08:31:54.846Z,8.03
2019-03-15T08:33:09.576Z,7.70
2019-03-15T08:34:04.939Z,5.20
2019-03-15T08:35:09.641Z,6.35
2019-03-15T08:36:14.303Z,7.72
2019-03-15T08:37:18.872Z,3.37
2019-03-15T08:38:23.195Z,4.85
2019-03-15T08:39:27.435Z,3.75
2019-03-15T08:40:31.258Z,6.17
2019-03-15T08:41:35.360Z,6.78
2019-03-15T08:42:39.664Z,3.52
2019-03-15T08:43:46.055Z,4.03
2019-03-15T08:44:49.546Z,5.25
2019-03-15T08:45:53.456Z,4.20
2019-03-15T08:46:57.784Z,5.62
2019-03-15T08:48:02.366Z,5.90
2019-03-15T08:49:06.678Z,5.17
2019-03-15T08:50:14.950Z,6.22
2019-03-15T08:51:18.036Z,4.47
2019-03-15T08:52:42.233Z,5.03
2019-03-15T08:53:46.850Z,8.60
2019-03-15T08:55:04.214Z,3.67
2019-03-15T08:55:56.916Z,3.40
2019-03-15T08:57:01.069Z,2.80
2019-03-15T08:58:13.801Z,13.15
2019-03-15T08:59:10.937Z,8.65
2019-03-15T09:01:57.036Z,5.97
2019-03-15T09:04:33.198Z,3.02
2019-03-15T09:05:56.119Z,3.80
2019-03-15T09:06:59.955Z,4.62
2019-03-15T09:08:22.984Z,3.67
2019-03-15T09:09:46.266Z,4.28
2019-03-15T09:10:50.108Z,3.17
2019-03-15T09:12:13.385Z,2.12
2019-03-15T09:13:36.333Z,3.98
2019-03-15T09:14:40.437Z,2.52
2019-03-15T09:15:44.341Z,2.17
2019-03-15T09:16:48.748Z,2.17
2019-03-15T09:17:52.894Z,2.35
2019-03-15T09:18:57.231Z,2.30
2019-03-15T09:20:01.411Z,1.92
2019-03-15T09:21:05.322Z,0.93
2019-03-15T09:22:09.400Z,1.47
2019-03-15T09:23:13.797Z,3.50
2019-03-15T09:24:17.860Z,2.33
2019-03-15T09:25:21.759Z,1.87
2019-03-15T09:26:26.081Z,5.78
2019-03-15T09:27:30.312Z,1.55
2019-03-15T09:28:34.376Z,1.32
2019-03-15T09:29:38.457Z,2.08
2019-03-15T09:30:43.256Z,1.65
2019-03-15T09:31:48.455Z,2.35
2019-03-15T09:32:52.406Z,0.95
2019-03-15T09:33:56.720Z,2.30
2019-03-15T09:35:00.558Z,2.35
2019-03-15T09:36:04.584Z,1.15
2019-03-15T09:37:09.031Z,0.82
2019-03-15T09:38:12.859Z,1.77
2019-03-15T09:39:17.010Z,0.90
2019-03-15T09:40:20.976Z,0.30
2019-03-15T09:41:31.825Z,2.00
2019-03-15T09:42:30.525Z,2.40
2019-03-15T09:43:34.670Z,5.33
2019-03-15T09:44:38.572Z,2.50
2019-03-15T09:45:42.797Z,2.02
2019-03-15T09:46:46.629Z,0.62
2019-03-15T09:47:51.112Z,0.23
2019-03-15T09:48:55.579Z,0.68
2019-03-15T09:49:59.987Z,0.98
2019-03-15T09:51:03.960Z,0.60
2019-03-15T09:52:08.112Z,0.50
2019-03-15T09:53:31.247Z,0.50
2019-03-15T09:54:54.142Z,0.45
2019-03-15T09:55:58.242Z,0.47
2019-03-15T09:57:02.085Z,0.75
2019-03-15T09:59:48.342Z,0.40
2019-03-15T10:01:11.939Z,1.00
2019-03-15T10:02:36.305Z,0.65
2019-03-15T10:03:40.466Z,1.35
2019-03-15T10:04:44.299Z,0.93
2019-03-15T10:06:15.435Z,0.50
2019-03-15T10:07:13.544Z,1.17
2019-03-15T10:08:17.684Z,1.98
2019-03-15T10:09:46.215Z,1.62
2019-03-15T10:10:49.225Z,2.98
2019-03-15T10:11:56.371Z,2.25
2019-03-15T10:13:05.872Z,0.40
2019-03-15T10:14:05.296Z,0.60
2019-03-15T10:16:54.599Z,1.42
2019-03-15T10:18:17.887Z,1.40
2019-03-15T10:19:41.027Z,1.30
2019-03-15T10:22:27.621Z,0.33
2019-03-15T10:23:50.531Z,0.33
2019-03-15T10:25:13.561Z,0.55
2019-03-15T10:28:00.041Z,0.50
2019-03-15T10:30:46.592Z,0.93
2019-03-15T10:32:09.968Z,0.47
2019-03-15T10:33:33.238Z,1.20
2019-03-15T10:34:37.695Z,1.00
2019-03-15T10:35:42.353Z,1.20
2019-03-15T10:37:06.266Z,0.68
2019-03-15T10:38:30.318Z,2.50
2019-03-15T10:39:34.517Z,0.60
2019-03-15T10:41:01.026Z,1.20
2019-03-15T10:42:03.765Z,0.30
2019-03-15T10:43:08.006Z,0.42
2019-03-15T10:44:30.952Z,1.00
2019-03-15T10:45:53.977Z,1.70
2019-03-15T10:46:58.120Z,0.50
2019-03-15T10:48:02.629Z,1.82
2019-03-15T10:49:07.061Z,0.80
2019-03-15T10:50:11.623Z,0.75
2019-03-15T10:51:15.687Z,0.23
2019-03-15T10:52:19.850Z,0.40
2019-03-15T10:53:23.766Z,0.20
2019-03-15T10:54:27.844Z,0.30
2019-03-15T10:55:31.997Z,0.95
2019-03-15T10:56:36.087Z,0.30
2019-03-15T10:57:40.320Z,1.35
2019-03-15T10:58:44.459Z,0.78
2019-03-15T10:59:48.519Z,0.47
2019-03-15T11:00:52.699Z,1.67
2019-03-15T11:01:56.870Z,0.35
2019-03-15T11:03:00.765Z,1.67
2019-03-15T11:04:05.239Z,2.67
2019-03-15T11:05:09.852Z,0.82
2019-03-15T11:06:13.828Z,0.90
2019-03-15T11:07:18.108Z,0.47
2019-03-15T11:08:24.224Z,0.75
2019-03-15T11:09:28.968Z,3.45
2019-03-15T11:10:33.347Z,0.53
2019-03-15T11:11:37.253Z,1.80
2019-03-15T11:12:41.426Z,1.40
2019-03-15T11:13:45.564Z,1.22
2019-03-15T11:14:49.886Z,1.80
2019-03-15T11:15:54.287Z,1.40
2019-03-15T11:16:58.694Z,1.75
2019-03-15T11:18:02.845Z,1.65
2019-03-15T11:19:07.092Z,3.22
2019-03-15T11:20:11.167Z,1.55
2019-03-15T11:21:15.322Z,1.32
2019-03-15T11:22:19.664Z,0.80
2019-03-15T11:23:23.638Z,1.30
2019-03-15T11:24:28.028Z,3.22
2019-03-15T11:25:32.629Z,2.27
2019-03-15T11:26:55.835Z,1.62
2019-03-15T11:27:59.937Z,2.42
2019-03-15T11:29:04.287Z,8.30
2019-03-15T11:30:47.785Z,4.33
2019-03-15T11:32:11.066Z,2.45
2019-03-15T11:33:14.905Z,2.00
2019-03-15T11:34:38.114Z,2.47
2019-03-15T11:35:41.950Z,0.50
2019-03-15T11:37:05.429Z,0.82
2019-03-15T11:38:28.960Z,1.05
2019-03-15T11:39:32.793Z,1.17
2019-03-15T11:40:55.935Z,0.95
2019-03-15T11:42:19.178Z,1.12
2019-03-15T11:43:42.747Z,2.35
2019-03-15T11:44:46.824Z,3.65
2019-03-15T11:45:51.103Z,0.85
2019-03-15T11:46:55.432Z,1.67
2019-03-15T11:48:03.953Z,2.50
2019-03-15T11:49:05.676Z,0.45
2019-03-15T11:50:10.131Z,1.02
2019-03-15T11:51:14.534Z,2.47
2019-03-15T11:52:19.198Z,1.07
2019-03-15T11:53:23.280Z,1.10
2019-03-15T11:54:27.692Z,1.10
2019-03-15T11:55:31.536Z,1.87
2019-03-15T11:56:35.624Z,0.93
2019-03-15T11:57:39.780Z,0.62
2019-03-15T11:58:44.387Z,1.45
2019-03-15T11:59:48.476Z,3.33
2019-03-15T12:00:52.689Z,1.57
2019-03-15T12:02:03.835Z,2.00
2019-03-15T12:03:02.896Z,2.30
2019-03-15T12:04:06.735Z,1.35
2019-03-15T12:05:10.705Z,0.72
2019-03-15T12:06:14.938Z,1.07
2019-03-15T12:07:19.078Z,0.93
2019-03-15T12:08:42.038Z,1.27
2019-03-15T12:09:45.865Z,1.55
2019-03-15T12:10:50.009Z,1.12
2019-03-15T12:13:35.921Z,0.98
2019-03-15T12:14:58.949Z,2.72
2019-03-15T12:16:03.058Z,2.15
2019-03-15T12:17:26.401Z,1.57
2019-03-15T12:18:49.678Z,1.10
2019-03-15T12:19:54.065Z,1.55
2019-03-15T12:21:17.336Z,2.72
2019-03-15T12:22:21.601Z,3.80
2019-03-15T12:23:44.565Z,1.67
2019-03-15T12:26:12.134Z,1.25
2019-03-15T12:27:15.979Z,2.08
2019-03-15T12:28:39.485Z,1.50
2019-03-15T12:29:43.672Z,1.55
2019-03-15T12:31:07.198Z,2.72
2019-03-15T12:32:30.084Z,1.75
2019-03-15T12:33:53.200Z,2.90
2019-03-15T12:36:58.921Z,2.00
2019-03-15T12:38:03.140Z,1.12
2019-03-15T12:41:09.119Z,0.90
2019-03-15T12:42:32.144Z,1.02
2019-03-15T12:43:36.944Z,0.90
2019-03-15T12:44:41.594Z,2.20
2019-03-15T12:45:45.458Z,1.45
2019-03-15T12:47:08.646Z,2.55
2019-03-15T12:48:12.806Z,1.62
2019-03-15T12:49:36.284Z,3.25
2019-03-15T12:50:40.779Z,1.80
2019-03-15T12:51:44.961Z,1.65
2019-03-15T12:53:08.256Z,2.45
2019-03-15T12:54:31.777Z,1.92
2019-03-15T12:55:54.944Z,3.35
2019-03-15T12:56:59.121Z,2.35
2019-03-15T12:58:22.285Z,1.60
2019-03-15T12:59:45.966Z,3.70
2019-03-15T13:01:09.297Z,1.82
2019-03-15T13:02:32.680Z,3.17
2019-03-15T13:03:37.202Z,1.35
2019-03-15T13:05:00.421Z,3.85
2019-03-15T13:06:25.421Z,2.17
2019-03-15T13:07:29.940Z,1.30
2019-03-15T13:08:34.024Z,2.87
2019-03-15T13:09:38.177Z,2.42
2019-03-15T13:10:42.084Z,1.85
2019-03-15T13:11:46.741Z,1.20
2019-03-15T13:12:50.957Z,1.92
2019-03-15T13:13:54.884Z,2.02
2019-03-15T13:14:59.075Z,1.80
2019-03-15T13:16:03.232Z,1.50
2019-03-15T13:17:07.401Z,1.82
2019-03-15T13:18:12.074Z,1.45
2019-03-15T13:19:15.901Z,0.75
2019-03-15T13:20:19.879Z,1.45
2019-03-15T13:21:24.017Z,2.30
2019-03-15T13:22:28.444Z,1.92
2019-03-15T13:23:32.524Z,1.47
2019-03-15T13:24:36.611Z,1.80
2019-03-15T13:26:00.093Z,4.03
2019-03-15T13:27:23.244Z,3.33
2019-03-15T13:28:46.292Z,1.05
2019-03-15T13:29:50.376Z,1.70
2019-03-15T13:31:13.336Z,1.45
2019-03-15T13:32:36.684Z,1.12
2019-03-15T13:33:59.923Z,3.20
2019-03-15T13:35:04.013Z,2.17
2019-03-15T13:36:47.506Z,2.30
2019-03-15T13:38:10.474Z,1.95
2019-03-15T13:39:14.303Z,1.15
2019-03-15T13:40:37.681Z,3.12
2019-03-15T13:41:41.854Z,0.90
2019-03-15T13:43:05.227Z,1.70
2019-03-15T13:44:09.919Z,2.10
2019-03-15T13:45:53.377Z,0.90
2019-03-15T13:46:57.261Z,2.30
2019-03-15T13:48:01.997Z,2.45
2019-03-15T13:49:25.051Z,2.17
2019-03-15T13:50:48.186Z,1.20
2019-03-15T13:53:15.630Z,1.75
2019-03-15T13:54:20.047Z,1.12
2019-03-15T13:55:35.666Z,1.30
2019-03-15T13:56:58.842Z,1.52
2019-03-15T13:58:22.145Z,1.37
2019-03-15T13:59:26.545Z,1.85
2019-03-15T14:00:30.528Z,2.65
2019-03-15T14:01:34.910Z,1.65
2019-03-15T14:02:39.069Z,1.55
2019-03-15T14:03:43.727Z,2.22
2019-03-15T14:04:48.068Z,1.10
2019-03-15T14:05:52.423Z,2.22
2019-03-15T14:06:56.513Z,1.98
2019-03-15T14:08:11.209Z,1.95
2019-03-15T14:09:08.715Z,1.35
2019-03-15T14:10:12.717Z,1.80
2019-03-15T14:11:17.441Z,1.85
2019-03-15T14:12:21.268Z,2.58
2019-03-15T14:13:25.448Z,2.47
2019-03-15T14:14:29.626Z,2.70
2019-03-15T14:15:33.560Z,1.25
2019-03-15T14:16:37.549Z,2.08
2019-03-15T14:17:41.779Z,1.20
2019-03-15T14:18:45.949Z,1.45
2019-03-15T14:19:50.353Z,2.55
2019-03-15T14:20:54.179Z,2.08
2019-03-15T14:21:58.840Z,3.17
2019-03-15T14:23:02.674Z,0.88
2019-03-15T14:24:07.341Z,2.17
2019-03-15T14:25:12.005Z,2.02
2019-03-15T14:26:16.443Z,1.25
2019-03-15T14:27:27.619Z,3.72
2019-03-15T14:28:26.581Z,2.35
2019-03-15T14:29:30.678Z,1.95
2019-03-15T14:30:35.156Z,2.75
2019-03-15T14:31:58.688Z,10.88
2019-03-15T14:33:03.262Z,1.90
2019-03-15T14:35:36.645Z,2.42
2019-03-15T14:36:40.876Z,10.53
2019-03-15T14:39:46.530Z,41.92
2019-03-15T14:40:52.358Z,144.75
2019-03-15T14:41:56.557Z,7.22
2019-03-15T14:43:00.575Z,2.22
2019-03-15T14:44:25.370Z,35.65
2019-03-15T14:45:48.801Z,39.50
2019-03-15T14:46:52.990Z,42.40
2019-03-15T14:47:56.848Z,31.55
2019-03-15T14:49:20.328Z,45.30
2019-03-15T14:50:43.354Z,21.97
2019-03-15T14:52:06.944Z,27.42
2019-03-15T14:53:11.200Z,53.05
2019-03-15T14:54:15.866Z,15.88
2019-03-15T14:55:20.071Z,12.95
2019-03-15T14:58:06.987Z,6.97
2019-03-15T14:59:30.291Z,2.33
2019-03-15T15:00:34.205Z,1.62
2019-03-15T15:01:57.594Z,1.75
2019-03-15T15:03:20.740Z,1.37
2019-03-15T15:04:44.110Z,1.20
2019-03-15T15:08:53.957Z,1.82
2019-03-15T15:09:59.091Z,0.68
2019-03-15T15:11:03.313Z,0.90
2019-03-15T15:12:07.731Z,0.80
2019-03-15T15:13:11.632Z,2.52
2019-03-15T15:14:15.788Z,1.67
2019-03-15T15:15:19.695Z,0.72
2019-03-15T15:16:24.067Z,2.40
2019-03-15T15:17:28.132Z,2.15
2019-03-15T15:18:32.594Z,0.95
2019-03-15T15:19:36.964Z,1.25
2019-03-15T15:20:42.049Z,0.80
2019-03-15T15:21:45.984Z,1.62
2019-03-15T15:22:50.439Z,0.80
2019-03-15T15:23:54.526Z,0.80
2019-03-15T15:24:58.898Z,1.30
2019-03-15T15:26:03.045Z,1.20
2019-03-15T15:27:07.262Z,1.05
2019-03-15T15:28:11.407Z,1.52
2019-03-15T15:29:15.508Z,2.08
2019-03-15T15:30:59.218Z,4.40
2019-03-15T15:32:22.688Z,1.82
2019-03-15T15:34:50.602Z,3.47
2019-03-15T15:35:55.103Z,1.40
2019-03-15T15:37:18.252Z,1.85
2019-03-15T15:39:53.773Z,1.25
2019-03-15T15:40:58.000Z,1.77
2019-03-15T15:42:21.334Z,2.80
2019-03-15T15:43:25.456Z,2.05
2019-03-15T15:44:48.505Z,5.05
2019-03-15T15:46:11.533Z,2.37
2019-03-15T15:47:34.435Z,3.45
2019-03-15T15:48:38.359Z,4.25
2019-03-15T15:49:42.528Z,2.30
2019-03-15T15:51:05.554Z,1.02
2019-03-15T15:52:09.464Z,1.05
2019-03-15T15:53:33.050Z,1.65
2019-03-15T15:54:36.905Z,0.78
2019-03-15T15:57:22.834Z,1.25
2019-03-15T15:58:45.730Z,1.05
2019-03-15T15:59:50.232Z,1.45
2019-03-15T16:00:54.076Z,1.55
2019-03-15T16:02:17.406Z,0.90
2019-03-15T16:03:21.246Z,1.47
2019-03-15T16:04:44.772Z,1.25
2019-03-15T16:06:09.937Z,1.75
2019-03-15T16:07:14.344Z,5.28
2019-03-15T16:08:18.797Z,1.40
2019-03-15T16:09:42.625Z,0.53
2019-03-15T16:11:06.175Z,2.15
2019-03-15T16:12:29.456Z,0.90
2019-03-15T16:13:52.692Z,2.15
2019-03-15T16:14:57.139Z,1.00
2019-03-15T16:17:24.534Z,0.93
2019-03-15T16:18:28.660Z,0.93
2019-03-15T16:19:51.864Z,1.77
2019-03-15T16:20:56.138Z,0.60
2019-03-15T16:22:00.242Z,0.88
2019-03-15T16:23:04.638Z,1.60
2019-03-15T16:24:08.816Z,0.75
2019-03-15T16:25:13.100Z,1.75